sensor_id;sensor_type;location;lat;lon;timestamp;P1;durP1;ratioP1;P2;durP2;ratioP2
75012;SDS011;63567;49.956;20.130;2022-10-23T00:01:41;30.63;;;15.10;;
75012;SDS011;63567;49.956;20.130;2022-10-23T00:04:09;27.38;;;13.98;;
75012;SDS011;63567;49.956;20.130;2022-10-23T00:06:37;26.70;;;14.82;;
75012;SDS011;63567;49.956;20.130;2022-10-23T00:09:03;28.35;;;15.25;;
75012;SDS011;63567;49.956;20.130;2022-10-23T00:11:29;26.33;;;13.23;;
75012;SDS011;63567;49.956;20.130;2022-10-23T00:13:56;28.63;;;16.67;;
75012;SDS011;63567;49.956;20.130;2022-10-23T00:16:23;26.45;;;14.38;;
75012;SDS011;63567;49.956;20.130;2022-10-23T00:18:48;27.63;;;14.07;;
75012;SDS011;63567;49.956;20.130;2022-10-23T00:21:14;28.70;;;14.70;;
75012;SDS011;63567;49.956;20.130;2022-10-23T00:23:41;29.05;;;15.13;;
75012;SDS011;63567;49.956;20.130;2022-10-23T00:26:07;29.73;;;15.10;;
75012;SDS011;63567;49.956;20.130;2022-10-23T00:28:35;28.38;;;15.73;;
75012;SDS011;63567;49.956;20.130;2022-10-23T00:31:01;30.92;;;15.52;;
75012;SDS011;63567;49.956;20.130;2022-10-23T00:33:28;30.33;;;16.33;;
75012;SDS011;63567;49.956;20.130;2022-10-23T00:35:54;32.35;;;15.95;;
75012;SDS011;63567;49.956;20.130;2022-10-23T00:38:19;27.27;;;15.00;;
75012;SDS011;63567;49.956;20.130;2022-10-23T00:40:44;29.73;;;15.77;;
75012;SDS011;63567;49.956;20.130;2022-10-23T00:43:21;33.17;;;16.27;;
75012;SDS011;63567;49.956;20.130;2022-10-23T00:45:48;29.83;;;15.52;;
75012;SDS011;63567;49.956;20.130;2022-10-23T00:48:13;27.77;;;15.30;;
75012;SDS011;63567;49.956;20.130;2022-10-23T00:50:39;26.05;;;13.98;;
75012;SDS011;63567;49.956;20.130;2022-10-23T00:53:04;26.30;;;14.05;;
75012;SDS011;63567;49.956;20.130;2022-10-23T00:55:31;24.63;;;14.05;;
75012;SDS011;63567;49.956;20.130;2022-10-23T00:57:58;22.25;;;12.93;;
75012;SDS011;63567;49.956;20.130;2022-10-23T01:00:24;24.88;;;14.05;;
75012;SDS011;63567;49.956;20.130;2022-10-23T01:02:53;27.13;;;14.88;;
75012;SDS011;63567;49.956;20.130;2022-10-23T01:05:21;25.25;;;13.52;;
75012;SDS011;63567;49.956;20.130;2022-10-23T01:07:55;23.50;;;13.10;;
75012;SDS011;63567;49.956;20.130;2022-10-23T01:15:42;21.88;;;12.35;;
75012;SDS011;63567;49.956;20.130;2022-10-23T01:18:37;20.35;;;12.07;;
75012;SDS011;63567;49.956;20.130;2022-10-23T01:21:17;22.60;;;11.55;;
75012;SDS011;63567;49.956;20.130;2022-10-23T01:24:00;22.70;;;12.38;;
75012;SDS011;63567;49.956;20.130;2022-10-23T01:29:19;21.02;;;11.73;;
75012;SDS011;63567;49.956;20.130;2022-10-23T01:32:03;20.95;;;11.32;;
75012;SDS011;63567;49.956;20.130;2022-10-23T01:34:39;20.58;;;11.68;;
75012;SDS011;63567;49.956;20.130;2022-10-23T01:37:13;21.48;;;12.30;;
75012;SDS011;63567;49.956;20.130;2022-10-23T01:39:46;21.63;;;12.73;;
75012;SDS011;63567;49.956;20.130;2022-10-23T01:42:18;22.75;;;13.40;;
75012;SDS011;63567;49.956;20.130;2022-10-23T01:44:57;21.27;;;11.32;;
75012;SDS011;63567;49.956;20.130;2022-10-23T01:47:27;20.77;;;11.95;;
75012;SDS011;63567;49.956;20.130;2022-10-23T01:49:56;19.25;;;11.30;;
75012;SDS011;63567;49.956;20.130;2022-10-23T01:52:23;19.40;;;10.30;;
75012;SDS011;63567;49.956;20.130;2022-10-23T01:54:49;18.08;;;10.00;;
75012;SDS011;63567;49.956;20.130;2022-10-23T01:57:17;19.63;;;11.48;;
75012;SDS011;63567;49.956;20.130;2022-10-23T01:59:47;16.98;;;10.57;;
75012;SDS011;63567;49.956;20.130;2022-10-23T02:02:17;18.30;;;10.75;;
75012;SDS011;63567;49.956;20.130;2022-10-23T02:04:55;17.83;;;9.85;;
75012;SDS011;63567;49.956;20.130;2022-10-23T02:07:24;19.02;;;10.40;;
75012;SDS011;63567;49.956;20.130;2022-10-23T02:09:49;19.23;;;10.85;;
75012;SDS011;63567;49.956;20.130;2022-10-23T02:12:39;17.40;;;10.70;;
75012;SDS011;63567;49.956;20.130;2022-10-23T02:15:08;16.92;;;10.48;;
75012;SDS011;63567;49.956;20.130;2022-10-23T02:17:54;19.02;;;10.23;;
75012;SDS011;63567;49.956;20.130;2022-10-23T02:20:28;16.65;;;10.00;;
75012;SDS011;63567;49.956;20.130;2022-10-23T02:22:59;18.00;;;10.85;;
75012;SDS011;63567;49.956;20.130;2022-10-23T02:25:35;18.17;;;9.75;;
75012;SDS011;63567;49.956;20.130;2022-10-23T02:28:09;18.45;;;10.32;;
75012;SDS011;63567;49.956;20.130;2022-10-23T02:30:41;18.70;;;10.52;;
75012;SDS011;63567;49.956;20.130;2022-10-23T02:33:10;15.38;;;9.15;;
75012;SDS011;63567;49.956;20.130;2022-10-23T02:35:37;14.82;;;8.65;;
75012;SDS011;63567;49.956;20.130;2022-10-23T02:38:02;16.40;;;9.50;;
75012;SDS011;63567;49.956;20.130;2022-10-23T02:40:30;15.60;;;8.87;;
75012;SDS011;63567;49.956;20.130;2022-10-23T02:43:13;15.43;;;9.15;;
75012;SDS011;63567;49.956;20.130;2022-10-23T02:45:53;15.95;;;9.13;;
75012;SDS011;63567;49.956;20.130;2022-10-23T02:48:22;14.93;;;9.20;;
75012;SDS011;63567;49.956;20.130;2022-10-23T02:56:19;17.38;;;9.15;;
75012;SDS011;63567;49.956;20.130;2022-10-23T03:01:37;16.02;;;9.10;;
75012;SDS011;63567;49.956;20.130;2022-10-23T03:04:12;14.63;;;9.18;;
75012;SDS011;63567;49.956;20.130;2022-10-23T03:06:39;16.60;;;9.00;;
75012;SDS011;63567;49.956;20.130;2022-10-23T03:09:06;16.23;;;8.80;;
75012;SDS011;63567;49.956;20.130;2022-10-23T03:11:33;13.98;;;8.75;;
75012;SDS011;63567;49.956;20.130;2022-10-23T03:13:59;14.82;;;9.35;;
75012;SDS011;63567;49.956;20.130;2022-10-23T03:16:24;11.83;;;7.60;;
75012;SDS011;63567;49.956;20.130;2022-10-23T03:18:50;16.25;;;9.15;;
75012;SDS011;63567;49.956;20.130;2022-10-23T03:21:15;14.30;;;8.68;;
75012;SDS011;63567;49.956;20.130;2022-10-23T03:23:41;13.82;;;8.23;;
75012;SDS011;63567;49.956;20.130;2022-10-23T03:26:06;13.83;;;8.40;;
75012;SDS011;63567;49.956;20.130;2022-10-23T03:28:31;14.82;;;8.68;;
75012;SDS011;63567;49.956;20.130;2022-10-23T03:30:57;13.98;;;8.48;;
75012;SDS011;63567;49.956;20.130;2022-10-23T03:33:22;14.10;;;8.03;;
75012;SDS011;63567;49.956;20.130;2022-10-23T03:35:47;13.83;;;8.20;;
75012;SDS011;63567;49.956;20.130;2022-10-23T03:38:13;12.48;;;7.82;;
75012;SDS011;63567;49.956;20.130;2022-10-23T03:40:39;13.48;;;8.32;;
75012;SDS011;63567;49.956;20.130;2022-10-23T03:43:04;12.17;;;8.20;;
75012;SDS011;63567;49.956;20.130;2022-10-23T03:45:30;11.90;;;7.70;;
75012;SDS011;63567;49.956;20.130;2022-10-23T03:47:56;14.40;;;8.63;;
75012;SDS011;63567;49.956;20.130;2022-10-23T03:50:22;13.82;;;8.60;;
75012;SDS011;63567;49.956;20.130;2022-10-23T03:52:47;14.80;;;8.40;;
75012;SDS011;63567;49.956;20.130;2022-10-23T03:55:12;13.20;;;7.87;;
75012;SDS011;63567;49.956;20.130;2022-10-23T03:57:38;13.15;;;8.00;;
75012;SDS011;63567;49.956;20.130;2022-10-23T04:00:04;14.07;;;8.18;;
75012;SDS011;63567;49.956;20.130;2022-10-23T04:02:30;12.38;;;7.90;;
75012;SDS011;63567;49.956;20.130;2022-10-23T04:04:56;13.17;;;6.90;;
75012;SDS011;63567;49.956;20.130;2022-10-23T04:07:21;13.37;;;7.53;;
75012;SDS011;63567;49.956;20.130;2022-10-23T04:09:46;11.43;;;7.70;;
75012;SDS011;63567;49.956;20.130;2022-10-23T04:12:12;12.70;;;6.97;;
75012;SDS011;63567;49.956;20.130;2022-10-23T04:14:37;10.43;;;6.70;;
75012;SDS011;63567;49.956;20.130;2022-10-23T04:17:02;11.70;;;7.10;;
75012;SDS011;63567;49.956;20.130;2022-10-23T04:19:28;12.17;;;7.73;;
75012;SDS011;63567;49.956;20.130;2022-10-23T04:21:53;12.43;;;7.00;;
75012;SDS011;63567;49.956;20.130;2022-10-23T04:24:18;11.00;;;6.93;;
75012;SDS011;63567;49.956;20.130;2022-10-23T04:26:43;10.57;;;7.40;;
75012;SDS011;63567;49.956;20.130;2022-10-23T04:29:09;10.27;;;6.60;;
75012;SDS011;63567;49.956;20.130;2022-10-23T04:31:34;13.10;;;7.90;;
75012;SDS011;63567;49.956;20.130;2022-10-23T04:33:59;11.17;;;6.83;;
75012;SDS011;63567;49.956;20.130;2022-10-23T04:36:25;11.07;;;7.20;;
75012;SDS011;63567;49.956;20.130;2022-10-23T04:38:50;11.35;;;7.20;;
75012;SDS011;63567;49.956;20.130;2022-10-23T04:41:17;11.68;;;7.65;;
75012;SDS011;63567;49.956;20.130;2022-10-23T04:43:42;10.82;;;7.15;;
75012;SDS011;63567;49.956;20.130;2022-10-23T04:46:07;12.30;;;7.53;;
75012;SDS011;63567;49.956;20.130;2022-10-23T04:48:33;10.70;;;6.87;;
75012;SDS011;63567;49.956;20.130;2022-10-23T04:50:59;9.67;;;6.60;;
75012;SDS011;63567;49.956;20.130;2022-10-23T04:53:28;10.10;;;6.78;;
75012;SDS011;63567;49.956;20.130;2022-10-23T04:55:55;12.25;;;6.65;;
75012;SDS011;63567;49.956;20.130;2022-10-23T04:58:22;11.05;;;6.57;;
75012;SDS011;63567;49.956;20.130;2022-10-23T05:00:48;10.98;;;6.85;;
75012;SDS011;63567;49.956;20.130;2022-10-23T05:03:14;10.60;;;6.78;;
75012;SDS011;63567;49.956;20.130;2022-10-23T05:05:40;10.70;;;6.80;;
75012;SDS011;63567;49.956;20.130;2022-10-23T05:08:06;11.02;;;6.45;;
75012;SDS011;63567;49.956;20.130;2022-10-23T05:10:31;11.80;;;7.00;;
75012;SDS011;63567;49.956;20.130;2022-10-23T05:12:57;11.40;;;7.10;;
75012;SDS011;63567;49.956;20.130;2022-10-23T05:15:22;13.65;;;7.45;;
75012;SDS011;63567;49.956;20.130;2022-10-23T05:17:48;13.33;;;7.73;;
75012;SDS011;63567;49.956;20.130;2022-10-23T05:20:19;19.40;;;11.48;;
75012;SDS011;63567;49.956;20.130;2022-10-23T05:22:46;13.15;;;7.78;;
75012;SDS011;63567;49.956;20.130;2022-10-23T05:25:15;13.35;;;8.00;;
75012;SDS011;63567;49.956;20.130;2022-10-23T05:27:41;12.40;;;8.00;;
75012;SDS011;63567;49.956;20.130;2022-10-23T05:30:06;13.18;;;8.30;;
75012;SDS011;63567;49.956;20.130;2022-10-23T05:32:32;11.45;;;7.20;;
75012;SDS011;63567;49.956;20.130;2022-10-23T05:34:58;15.73;;;8.57;;
75012;SDS011;63567;49.956;20.130;2022-10-23T05:37:28;12.68;;;7.95;;
75012;SDS011;63567;49.956;20.130;2022-10-23T05:39:55;13.50;;;9.00;;
75012;SDS011;63567;49.956;20.130;2022-10-23T05:42:20;15.25;;;8.68;;
75012;SDS011;63567;49.956;20.130;2022-10-23T05:44:46;15.23;;;8.97;;
75012;SDS011;63567;49.956;20.130;2022-10-23T05:47:11;15.93;;;9.93;;
75012;SDS011;63567;49.956;20.130;2022-10-23T05:49:36;16.27;;;9.60;;
75012;SDS011;63567;49.956;20.130;2022-10-23T05:52:02;14.67;;;8.77;;
75012;SDS011;63567;49.956;20.130;2022-10-23T05:54:27;14.03;;;9.00;;
75012;SDS011;63567;49.956;20.130;2022-10-23T05:56:52;16.70;;;9.57;;
75012;SDS011;63567;49.956;20.130;2022-10-23T05:59:19;15.38;;;9.88;;
75012;SDS011;63567;49.956;20.130;2022-10-23T06:01:45;15.32;;;9.45;;
75012;SDS011;63567;49.956;20.130;2022-10-23T06:04:10;15.67;;;9.60;;
75012;SDS011;63567;49.956;20.130;2022-10-23T06:06:35;16.87;;;10.10;;
75012;SDS011;63567;49.956;20.130;2022-10-23T06:09:01;16.13;;;9.00;;
75012;SDS011;63567;49.956;20.130;2022-10-23T06:11:27;14.90;;;8.90;;
75012;SDS011;63567;49.956;20.130;2022-10-23T06:13:52;15.87;;;9.40;;
75012;SDS011;63567;49.956;20.130;2022-10-23T06:16:18;12.03;;;7.90;;
75012;SDS011;63567;49.956;20.130;2022-10-23T06:18:46;11.02;;;7.07;;
75012;SDS011;63567;49.956;20.130;2022-10-23T06:21:12;9.57;;;6.63;;
75012;SDS011;63567;49.956;20.130;2022-10-23T06:23:39;8.50;;;5.82;;
75012;SDS011;63567;49.956;20.130;2022-10-23T06:26:05;8.75;;;6.15;;
75012;SDS011;63567;49.956;20.130;2022-10-23T06:28:32;9.30;;;6.45;;
75012;SDS011;63567;49.956;20.130;2022-10-23T06:30:57;11.50;;;6.63;;
75012;SDS011;63567;49.956;20.130;2022-10-23T06:33:23;8.65;;;6.10;;
75012;SDS011;63567;49.956;20.130;2022-10-23T06:35:48;8.33;;;5.70;;
75012;SDS011;63567;49.956;20.130;2022-10-23T06:38:13;8.20;;;5.60;;
75012;SDS011;63567;49.956;20.130;2022-10-23T06:40:39;9.50;;;5.82;;
75012;SDS011;63567;49.956;20.130;2022-10-23T06:43:05;7.15;;;5.05;;
75012;SDS011;63567;49.956;20.130;2022-10-23T06:45:32;9.65;;;5.70;;
75012;SDS011;63567;49.956;20.130;2022-10-23T06:47:58;7.88;;;5.43;;
75012;SDS011;63567;49.956;20.130;2022-10-23T06:50:24;8.27;;;5.80;;
75012;SDS011;63567;49.956;20.130;2022-10-23T06:52:50;7.80;;;5.13;;
75012;SDS011;63567;49.956;20.130;2022-10-23T06:55:17;7.60;;;4.88;;
75012;SDS011;63567;49.956;20.130;2022-10-23T06:57:43;7.35;;;5.18;;
75012;SDS011;63567;49.956;20.130;2022-10-23T07:00:09;7.45;;;4.90;;
75012;SDS011;63567;49.956;20.130;2022-10-23T07:02:35;6.00;;;4.97;;
75012;SDS011;63567;49.956;20.130;2022-10-23T07:05:00;8.15;;;5.30;;
75012;SDS011;63567;49.956;20.130;2022-10-23T07:07:28;7.80;;;5.30;;
75012;SDS011;63567;49.956;20.130;2022-10-23T07:09:53;8.68;;;5.88;;
75012;SDS011;63567;49.956;20.130;2022-10-23T07:12:18;7.53;;;5.40;;
75012;SDS011;63567;49.956;20.130;2022-10-23T07:14:44;5.70;;;4.73;;
75012;SDS011;63567;49.956;20.130;2022-10-23T07:17:09;6.20;;;4.33;;
75012;SDS011;63567;49.956;20.130;2022-10-23T07:19:34;6.00;;;4.67;;
75012;SDS011;63567;49.956;20.130;2022-10-23T07:22:00;7.07;;;5.50;;
75012;SDS011;63567;49.956;20.130;2022-10-23T07:24:25;8.17;;;5.27;;
75012;SDS011;63567;49.956;20.130;2022-10-23T07:26:51;6.70;;;5.68;;
75012;SDS011;63567;49.956;20.130;2022-10-23T07:29:16;6.90;;;4.60;;
75012;SDS011;63567;49.956;20.130;2022-10-23T07:31:42;7.40;;;4.90;;
75012;SDS011;63567;49.956;20.130;2022-10-23T07:34:08;9.88;;;6.57;;
75012;SDS011;63567;49.956;20.130;2022-10-23T07:36:34;19.70;;;18.40;;
75012;SDS011;63567;49.956;20.130;2022-10-23T07:38:59;62.67;;;60.17;;
75012;SDS011;63567;49.956;20.130;2022-10-23T07:41:25;51.23;;;49.23;;
75012;SDS011;63567;49.956;20.130;2022-10-23T07:43:50;40.33;;;38.63;;
75012;SDS011;63567;49.956;20.130;2022-10-23T07:46:16;56.28;;;54.15;;
75012;SDS011;63567;49.956;20.130;2022-10-23T07:48:41;37.03;;;35.13;;
75012;SDS011;63567;49.956;20.130;2022-10-23T07:51:07;16.07;;;15.13;;
75012;SDS011;63567;49.956;20.130;2022-10-23T07:53:36;26.98;;;25.77;;
75012;SDS011;63567;49.956;20.130;2022-10-23T07:56:03;7.70;;;7.10;;
75012;SDS011;63567;49.956;20.130;2022-10-23T07:58:36;5.75;;;5.20;;
75012;SDS011;63567;49.956;20.130;2022-10-23T08:01:02;6.10;;;4.60;;
75012;SDS011;63567;49.956;20.130;2022-10-23T08:03:29;5.78;;;5.03;;
75012;SDS011;63567;49.956;20.130;2022-10-23T08:05:56;6.63;;;5.55;;
75012;SDS011;63567;49.956;20.130;2022-10-23T08:08:22;5.63;;;4.78;;
75012;SDS011;63567;49.956;20.130;2022-10-23T08:10:49;5.15;;;4.15;;
75012;SDS011;63567;49.956;20.130;2022-10-23T08:13:16;6.15;;;4.38;;
75012;SDS011;63567;49.956;20.130;2022-10-23T08:15:44;5.88;;;4.43;;
75012;SDS011;63567;49.956;20.130;2022-10-23T08:18:10;5.90;;;4.43;;
75012;SDS011;63567;49.956;20.130;2022-10-23T08:20:42;6.83;;;4.33;;
75012;SDS011;63567;49.956;20.130;2022-10-23T08:23:09;6.07;;;4.53;;
75012;SDS011;63567;49.956;20.130;2022-10-23T08:25:38;4.78;;;3.92;;
75012;SDS011;63567;49.956;20.130;2022-10-23T08:28:04;5.13;;;4.20;;
75012;SDS011;63567;49.956;20.130;2022-10-23T08:30:31;5.03;;;4.53;;
75012;SDS011;63567;49.956;20.130;2022-10-23T08:32:56;4.57;;;4.00;;
75012;SDS011;63567;49.956;20.130;2022-10-23T08:35:22;4.60;;;3.93;;
75012;SDS011;63567;49.956;20.130;2022-10-23T08:37:47;5.63;;;4.27;;
75012;SDS011;63567;49.956;20.130;2022-10-23T08:40:13;5.40;;;4.20;;
75012;SDS011;63567;49.956;20.130;2022-10-23T08:42:40;6.13;;;3.95;;
75012;SDS011;63567;49.956;20.130;2022-10-23T08:48:09;6.90;;;3.67;;
75012;SDS011;63567;49.956;20.130;2022-10-23T08:50:42;4.75;;;3.35;;
75012;SDS011;63567;49.956;20.130;2022-10-23T08:53:20;4.32;;;3.60;;
75012;SDS011;63567;49.956;20.130;2022-10-23T08:55:53;5.05;;;3.75;;
75012;SDS011;63567;49.956;20.130;2022-10-23T08:58:25;5.55;;;3.70;;
75012;SDS011;63567;49.956;20.130;2022-10-23T09:00:58;5.07;;;4.22;;
75012;SDS011;63567;49.956;20.130;2022-10-23T09:03:23;5.13;;;4.13;;
75012;SDS011;63567;49.956;20.130;2022-10-23T09:06:04;4.15;;;3.75;;
75012;SDS011;63567;49.956;20.130;2022-10-23T09:08:45;4.43;;;3.80;;
75012;SDS011;63567;49.956;20.130;2022-10-23T09:19:26;4.35;;;3.95;;
75012;SDS011;63567;49.956;20.130;2022-10-23T09:21:52;4.65;;;4.25;;
75012;SDS011;63567;49.956;20.130;2022-10-23T09:24:21;4.82;;;3.90;;
75012;SDS011;63567;49.956;20.130;2022-10-23T09:26:49;3.78;;;3.42;;
75012;SDS011;63567;49.956;20.130;2022-10-23T09:29:27;3.58;;;3.28;;
75012;SDS011;63567;49.956;20.130;2022-10-23T09:31:57;4.22;;;3.83;;
75012;SDS011;63567;49.956;20.130;2022-10-23T09:34:25;4.80;;;3.75;;
75012;SDS011;63567;49.956;20.130;2022-10-23T09:36:59;4.60;;;3.85;;
75012;SDS011;63567;49.956;20.130;2022-10-23T09:39:29;4.10;;;3.72;;
75012;SDS011;63567;49.956;20.130;2022-10-23T09:41:57;4.28;;;3.88;;
75012;SDS011;63567;49.956;20.130;2022-10-23T09:49:31;3.92;;;3.53;;
75012;SDS011;63567;49.956;20.130;2022-10-23T09:54:35;3.65;;;3.35;;
75012;SDS011;63567;49.956;20.130;2022-10-23T09:57:04;3.58;;;3.25;;
75012;SDS011;63567;49.956;20.130;2022-10-23T09:59:52;3.70;;;3.38;;
75012;SDS011;63567;49.956;20.130;2022-10-23T10:02:27;5.05;;;4.00;;
75012;SDS011;63567;49.956;20.130;2022-10-23T10:04:55;4.03;;;3.63;;
75012;SDS011;63567;49.956;20.130;2022-10-23T10:07:23;4.03;;;3.63;;
75012;SDS011;63567;49.956;20.130;2022-10-23T10:09:51;4.85;;;4.45;;
75012;SDS011;63567;49.956;20.130;2022-10-23T10:12:31;5.57;;;5.10;;
75012;SDS011;63567;49.956;20.130;2022-10-23T10:15:42;5.35;;;5.03;;
75012;SDS011;63567;49.956;20.130;2022-10-23T10:23:53;4.78;;;4.38;;
75012;SDS011;63567;49.956;20.130;2022-10-23T10:31:56;5.60;;;5.10;;
75012;SDS011;63567;49.956;20.130;2022-10-23T10:34:55;7.47;;;7.05;;
75012;SDS011;63567;49.956;20.130;2022-10-23T10:40:31;7.43;;;7.07;;
75012;SDS011;63567;49.956;20.130;2022-10-23T10:48:59;7.40;;;7.00;;
75012;SDS011;63567;49.956;20.130;2022-10-23T10:56:30;8.98;;;8.45;;
75012;SDS011;63567;49.956;20.130;2022-10-23T10:59:03;9.68;;;9.18;;
75012;SDS011;63567;49.956;20.130;2022-10-23T11:07:12;10.10;;;9.60;;
75012;SDS011;63567;49.956;20.130;2022-10-23T11:09:41;11.77;;;10.98;;
75012;SDS011;63567;49.956;20.130;2022-10-23T11:12:13;11.07;;;10.48;;
75012;SDS011;63567;49.956;20.130;2022-10-23T11:14:44;11.82;;;11.30;;
75012;SDS011;63567;49.956;20.130;2022-10-23T11:17:13;13.52;;;12.93;;
75012;SDS011;63567;49.956;20.130;2022-10-23T11:28:14;27.20;;;25.52;;
75012;SDS011;63567;49.956;20.130;2022-10-23T11:39:19;6.85;;;6.53;;
75012;SDS011;63567;49.956;20.130;2022-10-23T11:42:10;10.88;;;10.38;;
75012;SDS011;63567;49.956;20.130;2022-10-23T11:47:26;16.13;;;15.32;;
75012;SDS011;63567;49.956;20.130;2022-10-23T11:50:23;11.23;;;10.82;;
75012;SDS011;63567;49.956;20.130;2022-10-23T11:52:54;15.52;;;14.93;;
75012;SDS011;63567;49.956;20.130;2022-10-23T11:55:29;9.13;;;8.57;;
75012;SDS011;63567;49.956;20.130;2022-10-23T12:00:51;11.88;;;11.38;;
75012;SDS011;63567;49.956;20.130;2022-10-23T12:03:23;10.10;;;9.65;;
75012;SDS011;63567;49.956;20.130;2022-10-23T12:05:57;8.45;;;8.05;;
75012;SDS011;63567;49.956;20.130;2022-10-23T12:08:27;6.53;;;6.13;;
75012;SDS011;63567;49.956;20.130;2022-10-23T12:10:54;5.75;;;5.40;;
75012;SDS011;63567;49.956;20.130;2022-10-23T12:15:56;8.75;;;8.13;;
75012;SDS011;63567;49.956;20.130;2022-10-23T12:18:21;7.07;;;6.67;;
75012;SDS011;63567;49.956;20.130;2022-10-23T12:28:38;7.05;;;6.63;;
75012;SDS011;63567;49.956;20.130;2022-10-23T12:34:31;8.05;;;7.45;;
75012;SDS011;63567;49.956;20.130;2022-10-23T12:40:18;3.53;;;3.28;;
75012;SDS011;63567;49.956;20.130;2022-10-23T12:42:51;3.50;;;3.20;;
75012;SDS011;63567;49.956;20.130;2022-10-23T12:47:47;4.10;;;3.70;;
75012;SDS011;63567;49.956;20.130;2022-10-23T12:50:25;5.60;;;5.10;;
75012;SDS011;63567;49.956;20.130;2022-10-23T12:52:57;6.93;;;6.05;;
75012;SDS011;63567;49.956;20.130;2022-10-23T12:55:29;5.60;;;3.55;;
75012;SDS011;63567;49.956;20.130;2022-10-23T12:58:17;11.25;;;8.75;;
75012;SDS011;63567;49.956;20.130;2022-10-23T13:00:55;4.40;;;4.00;;
75012;SDS011;63567;49.956;20.130;2022-10-23T13:03:22;5.18;;;4.13;;
75012;SDS011;63567;49.956;20.130;2022-10-23T13:05:49;5.20;;;4.80;;
75012;SDS011;63567;49.956;20.130;2022-10-23T13:08:17;7.35;;;6.22;;
75012;SDS011;63567;49.956;20.130;2022-10-23T13:10:44;16.85;;;15.18;;
75012;SDS011;63567;49.956;20.130;2022-10-23T13:13:11;7.80;;;7.20;;
75012;SDS011;63567;49.956;20.130;2022-10-23T13:15:39;7.53;;;6.82;;
75012;SDS011;63567;49.956;20.130;2022-10-23T13:18:06;9.48;;;7.47;;
75012;SDS011;63567;49.956;20.130;2022-10-23T13:20:33;7.80;;;7.10;;
75012;SDS011;63567;49.956;20.130;2022-10-23T13:25:52;8.65;;;7.85;;
75012;SDS011;63567;49.956;20.130;2022-10-23T13:28:45;7.95;;;7.35;;
75012;SDS011;63567;49.956;20.130;2022-10-23T13:36:19;6.28;;;5.63;;
75012;SDS011;63567;49.956;20.130;2022-10-23T13:39:03;11.02;;;10.05;;
75012;SDS011;63567;49.956;20.130;2022-10-23T13:41:39;6.57;;;5.97;;
75012;SDS011;63567;49.956;20.130;2022-10-23T13:44:12;6.82;;;6.15;;
75012;SDS011;63567;49.956;20.130;2022-10-23T13:46:42;8.18;;;7.47;;
75012;SDS011;63567;49.956;20.130;2022-10-23T13:49:08;10.02;;;8.88;;
75012;SDS011;63567;49.956;20.130;2022-10-23T13:51:41;16.45;;;13.32;;
75012;SDS011;63567;49.956;20.130;2022-10-23T13:54:13;8.07;;;7.18;;
75012;SDS011;63567;49.956;20.130;2022-10-23T13:56:40;16.42;;;14.60;;
75012;SDS011;63567;49.956;20.130;2022-10-23T13:59:05;12.88;;;10.95;;
75012;SDS011;63567;49.956;20.130;2022-10-23T14:01:32;7.38;;;6.03;;
75012;SDS011;63567;49.956;20.130;2022-10-23T14:03:59;10.45;;;9.18;;
75012;SDS011;63567;49.956;20.130;2022-10-23T14:06:25;7.95;;;7.13;;
75012;SDS011;63567;49.956;20.130;2022-10-23T14:08:50;7.27;;;6.07;;
75012;SDS011;63567;49.956;20.130;2022-10-23T14:11:16;8.33;;;7.03;;
75012;SDS011;63567;49.956;20.130;2022-10-23T14:13:43;7.93;;;6.68;;
75012;SDS011;63567;49.956;20.130;2022-10-23T14:16:13;10.90;;;7.63;;
75012;SDS011;63567;49.956;20.130;2022-10-23T14:18:40;10.23;;;9.15;;
75012;SDS011;63567;49.956;20.130;2022-10-23T14:21:05;9.23;;;6.23;;
75012;SDS011;63567;49.956;20.130;2022-10-23T14:23:32;8.93;;;7.53;;
75012;SDS011;63567;49.956;20.130;2022-10-23T14:26:08;8.30;;;7.38;;
75012;SDS011;63567;49.956;20.130;2022-10-23T14:28:36;10.00;;;8.27;;
75012;SDS011;63567;49.956;20.130;2022-10-23T14:31:02;11.35;;;8.23;;
75012;SDS011;63567;49.956;20.130;2022-10-23T14:33:35;9.05;;;7.57;;
75012;SDS011;63567;49.956;20.130;2022-10-23T14:36:00;12.45;;;10.40;;
75012;SDS011;63567;49.956;20.130;2022-10-23T14:38:26;9.02;;;7.75;;
75012;SDS011;63567;49.956;20.130;2022-10-23T14:40:52;9.35;;;7.30;;
75012;SDS011;63567;49.956;20.130;2022-10-23T14:43:17;8.98;;;8.07;;
75012;SDS011;63567;49.956;20.130;2022-10-23T14:45:43;10.53;;;8.40;;
75012;SDS011;63567;49.956;20.130;2022-10-23T14:48:08;10.45;;;9.18;;
75012;SDS011;63567;49.956;20.130;2022-10-23T14:50:34;9.13;;;7.70;;
75012;SDS011;63567;49.956;20.130;2022-10-23T14:53:00;9.77;;;8.32;;
75012;SDS011;63567;49.956;20.130;2022-10-23T14:55:26;11.32;;;8.45;;
75012;SDS011;63567;49.956;20.130;2022-10-23T14:57:54;9.77;;;7.80;;
75012;SDS011;63567;49.956;20.130;2022-10-23T15:00:20;11.20;;;8.25;;
75012;SDS011;63567;49.956;20.130;2022-10-23T15:02:45;9.70;;;7.72;;
75012;SDS011;63567;49.956;20.130;2022-10-23T15:05:11;10.57;;;7.90;;
75012;SDS011;63567;49.956;20.130;2022-10-23T15:07:36;12.50;;;8.60;;
75012;SDS011;63567;49.956;20.130;2022-10-23T15:10:02;10.60;;;7.60;;
75012;SDS011;63567;49.956;20.130;2022-10-23T15:12:28;12.50;;;8.52;;
75012;SDS011;63567;49.956;20.130;2022-10-23T15:14:53;29.43;;;13.87;;
75012;SDS011;63567;49.956;20.130;2022-10-23T15:17:19;30.87;;;16.00;;
75012;SDS011;63567;49.956;20.130;2022-10-23T15:19:44;18.37;;;10.57;;
75012;SDS011;63567;49.956;20.130;2022-10-23T15:22:09;15.13;;;8.97;;
75012;SDS011;63567;49.956;20.130;2022-10-23T15:24:35;16.67;;;9.05;;
75012;SDS011;63567;49.956;20.130;2022-10-23T15:27:00;10.83;;;7.80;;
75012;SDS011;63567;49.956;20.130;2022-10-23T15:29:26;10.23;;;7.88;;
75012;SDS011;63567;49.956;20.130;2022-10-23T15:31:52;9.33;;;7.03;;
75012;SDS011;63567;49.956;20.130;2022-10-23T15:34:20;10.25;;;6.82;;
75012;SDS011;63567;49.956;20.130;2022-10-23T15:36:48;11.60;;;7.90;;
75012;SDS011;63567;49.956;20.130;2022-10-23T15:39:14;10.20;;;5.75;;
75012;SDS011;63567;49.956;20.130;2022-10-23T15:41:42;15.93;;;9.82;;
75012;SDS011;63567;49.956;20.130;2022-10-23T15:44:09;21.92;;;11.35;;
75012;SDS011;63567;49.956;20.130;2022-10-23T15:46:36;12.95;;;7.78;;
75012;SDS011;63567;49.956;20.130;2022-10-23T15:49:02;11.07;;;7.97;;
75012;SDS011;63567;49.956;20.130;2022-10-23T15:51:28;8.60;;;6.93;;
75012;SDS011;63567;49.956;20.130;2022-10-23T15:53:54;9.57;;;6.72;;
75012;SDS011;63567;49.956;20.130;2022-10-23T15:56:21;9.48;;;6.88;;
75012;SDS011;63567;49.956;20.130;2022-10-23T15:58:47;15.70;;;9.07;;
75012;SDS011;63567;49.956;20.130;2022-10-23T16:01:12;28.40;;;15.20;;
75012;SDS011;63567;49.956;20.130;2022-10-23T16:03:37;39.70;;;18.13;;
75012;SDS011;63567;49.956;20.130;2022-10-23T16:06:13;42.70;;;20.88;;
75012;SDS011;63567;49.956;20.130;2022-10-23T16:08:39;27.85;;;15.95;;
75012;SDS011;63567;49.956;20.130;2022-10-23T16:11:11;19.10;;;11.70;;
75012;SDS011;63567;49.956;20.130;2022-10-23T16:13:39;13.38;;;8.90;;
75012;SDS011;63567;49.956;20.130;2022-10-23T16:16:04;16.60;;;11.27;;
75012;SDS011;63567;49.956;20.130;2022-10-23T16:18:30;26.60;;;15.88;;
75012;SDS011;63567;49.956;20.130;2022-10-23T16:20:55;29.97;;;17.00;;
75012;SDS011;63567;49.956;20.130;2022-10-23T16:23:21;18.30;;;12.27;;
75012;SDS011;63567;49.956;20.130;2022-10-23T16:25:46;26.33;;;18.05;;
75012;SDS011;63567;49.956;20.130;2022-10-23T16:28:12;46.00;;;22.33;;